Time;durP1;ratioP1;P1;durP2;ratioP2;P2;SDS_P1;SDS_P2;PMS_P1;PMS_P2;Temp;Humidity;BMP_temperature;BMP_pressure;BME280_temperature;BME280_humidity;BME280_pressure;Samples;Min_cycle;Max_cycle;Signal;HPM_P1;HPM_P2
2021/12/18 07:17:32;;;;;;;37.85;19.17;;;4.40;99.90;;;;;;6156786;23;20003;-89
2021/12/18 07:20:10;;;;;;;38.00;20.65;;;4.40;99.90;;;;;;6131658;23;20227;-93
2021/12/18 07:26:16;;;;;;;34.15;20.40;;;4.40;99.90;;;;;;6066771;23;20035;-91
2021/12/18 07:29:31;;;;;;;36.72;18.40;;;4.40;99.90;;;;;;6160998;23;20053;-88
2021/12/18 07:32:30;;;;;;;;;;;;;;;;;;;;;
2021/12/18 07:35:28;;;;;;;;;;;;;;;;;;;;;
2021/12/18 07:38:35;;;;;;;;;;;4.50;99.90;;;;;;6161226;23;20036;-90
2021/12/18 07:41:18;;;;;;;33.38;19.13;;;4.60;99.90;;;;;;6154657;23;19901;-88
2021/12/18 07:44:09;;;;;;;;;;;;;;;;;;;;;
2021/12/18 07:50:12;;;;;;;;;;;;;;;;;;;;;
2021/12/18 07:56:47;;;;;;;35.53;19.48;;;4.50;99.90;;;;;;6045126;23;20011;-91
2021/12/18 07:59:55;;;;;;;38.85;20.27;;;4.50;99.90;;;;;;6043800;23;20011;-92
2021/12/18 08:06:09;;;;;;;32.60;19.35;;;4.50;99.90;;;;;;6028268;23;20016;-94
2021/12/18 08:08:43;;;;;;;32.28;18.52;;;4.50;99.90;;;;;;6131614;23;20700;-92
2021/12/18 08:11:14;;;;;;;38.63;21.23;;;4.60;99.90;;;;;;6133599;23;20013;-93
2021/12/18 08:13:40;;;;;;;36.83;19.95;;;4.60;99.90;;;;;;6153984;23;20430;-93
2021/12/18 08:19:43;;;;;;;32.55;18.67;;;4.60;99.90;;;;;;6151951;23;20065;-92
2021/12/18 08:22:09;;;;;;;36.47;18.70;;;4.70;99.90;;;;;;6168455;23;20461;-90
2021/12/18 08:24:34;;;;;;;35.03;18.98;;;4.70;99.90;;;;;;6156113;23;20453;-90
2021/12/18 08:27:12;;;;;;;35.65;20.17;;;4.70;99.90;;;;;;6268943;22;20008;-91
2021/12/18 08:29:38;;;;;;;33.50;19.25;;;4.60;99.90;;;;;;6304344;22;20352;-92
2021/12/18 08:32:04;;;;;;;36.80;20.83;;;4.70;99.90;;;;;;6304960;22;20000;-93
2021/12/18 08:34:30;;;;;;;33.35;18.00;;;4.70;99.90;;;;;;6303078;22;20011;-94
2021/12/18 08:37:04;;;;;;;37.17;19.52;;;4.70;99.90;;;;;;6303087;22;20089;-93
2021/12/18 08:39:29;;;;;;;34.53;19.73;;;4.70;99.90;;;;;;6305845;22;20030;-91
2021/12/18 08:41:58;;;;;;;36.58;20.10;;;4.70;99.90;;;;;;6306152;22;20424;-89
2021/12/18 08:44:55;;;;;;;33.97;19.73;;;4.70;99.90;;;;;;6306096;22;20014;-93
2021/12/18 08:47:30;;;;;;;33.85;18.77;;;4.70;99.90;;;;;;6305623;22;20034;-92
2021/12/18 08:50:03;;;;;;;33.90;19.17;;;4.80;99.90;;;;;;6307901;22;20438;-92
2021/12/18 08:52:37;;;;;;;35.28;18.77;;;5.10;99.90;;;;;;6307220;22;20352;-92
2021/12/18 08:55:12;;;;;;;37.83;19.60;;;4.90;99.90;;;;;;6307835;22;20074;-91
2021/12/18 08:57:37;;;;;;;37.63;19.50;;;4.80;99.90;;;;;;6303619;22;20009;-92
2021/12/18 09:00:13;;;;;;;37.28;19.55;;;4.90;99.90;;;;;;6303384;22;20007;-92
2021/12/18 09:02:42;;;;;;;34.83;20.05;;;5.00;99.90;;;;;;6304193;22;19999;-91
2021/12/18 09:05:11;;;;;;;34.55;20.35;;;5.00;99.90;;;;;;6306217;22;20111;-93
2021/12/18 09:08:00;;;;;;;32.92;19.00;;;5.10;99.90;;;;;;6313490;22;20007;-89
2021/12/18 09:10:38;;;;;;;;;;;;;;;;;;;;;
2021/12/18 09:13:18;;;;;;;35.10;20.17;;;5.20;99.90;;;;;;6326248;22;19999;-90
2021/12/18 09:15:43;;;;;;;34.35;19.05;;;5.10;99.90;;;;;;6312397;22;20007;-91
2021/12/18 09:18:19;;;;;;;31.65;19.73;;;5.20;99.90;;;;;;6307503;22;20003;-91
2021/12/18 09:24:46;;;;;;;33.90;19.48;;;5.30;99.90;;;;;;6232891;22;20042;-91
2021/12/18 09:27:22;;;;;;;;;;;;;;;;;;;;;
2021/12/18 09:29:59;;;;;;;34.92;20.17;;;5.40;99.90;;;;;;6305461;22;20071;-90
2021/12/18 09:32:28;;;;;;;33.83;19.90;;;5.50;99.90;;;;;;6304194;22;20014;-95
2021/12/18 09:34:57;;;;;;;31.17;20.38;;;5.50;99.90;;;;;;6305545;22;20007;-90
2021/12/18 09:37:23;;;;;;;34.63;19.65;;;5.60;99.90;;;;;;6306302;22;20007;-88
2021/12/18 09:39:49;;;;;;;32.75;20.02;;;5.60;99.90;;;;;;6308130;22;20325;-89
2021/12/18 09:42:15;;;;;;;31.10;18.95;;;5.70;99.90;;;;;;6306714;22;20010;-91
2021/12/18 09:44:49;;;;;;;35.25;19.70;;;5.70;99.90;;;;;;6313966;22;20029;-91
2021/12/18 09:47:23;;;;;;;38.88;20.70;;;5.80;99.90;;;;;;6307313;22;20007;-90
2021/12/18 09:49:53;;;;;;;30.80;19.45;;;5.80;99.90;;;;;;6306122;22;20386;-91
2021/12/18 09:52:28;;;;;;;30.92;19.63;;;5.70;99.90;;;;;;6304669;22;20400;-90
2021/12/18 09:54:59;;;;;;;34.50;18.92;;;5.90;99.90;;;;;;6307697;22;20004;-94
2021/12/18 09:57:36;;;;;;;32.45;19.67;;;5.90;99.90;;;;;;6309618;22;20317;-92
2021/12/18 10:00:26;;;;;;;34.85;18.65;;;5.90;99.90;;;;;;6310185;22;20027;-92
2021/12/18 10:03:07;;;;;;;31.83;18.70;;;6.00;99.90;;;;;;6312063;22;20000;-92
2021/12/18 10:05:35;;;;;;;30.88;17.50;;;6.10;99.90;;;;;;6307099;22;20003;-91
2021/12/18 10:08:08;;;;;;;33.37;19.03;;;6.10;99.90;;;;;;6305113;22;20015;-90
2021/12/18 10:10:35;;;;;;;29.95;18.05;;;6.20;99.90;;;;;;6304384;22;20102;-91
2021/12/18 10:13:05;;;;;;;30.85;19.10;;;6.30;99.90;;;;;;6304190;22;20321;-90
2021/12/18 10:15:34;;;;;;;33.00;18.38;;;6.30;99.90;;;;;;6306460;22;20002;-90
2021/12/18 10:18:09;;;;;;;31.27;18.17;;;6.40;99.90;;;;;;6306678;22;20077;-92
2021/12/18 10:20:35;;;;;;;34.13;19.25;;;6.50;99.90;;;;;;6304501;22;20400;-92
2021/12/18 10:23:04;;;;;;;31.15;17.55;;;6.50;99.90;;;;;;6305104;22;19999;-89
2021/12/18 10:25:42;;;;;;;31.83;18.55;;;6.70;99.90;;;;;;6303356;22;20026;-88
2021/12/18 10:28:17;;;;;;;27.90;17.05;;;6.80;99.90;;;;;;6305061;22;20050;-90
2021/12/18 10:30:59;;;;;;;27.88;17.80;;;7.00;99.90;;;;;;6305262;22;19995;-91
2021/12/18 10:33:29;;;;;;;29.42;17.67;;;7.10;99.90;;;;;;6304430;22;20411;-93
2021/12/18 10:35:58;;;;;;;28.77;17.80;;;7.10;99.90;;;;;;6305501;22;19999;-89
2021/12/18 10:38:49;;;;;;;;;;;;;;;;;;;;;
2021/12/18 10:41:34;;;;;;;;;;;;;;;;;;;;;
2021/12/18 10:44:10;;;;;;;32.85;17.00;;;7.40;99.90;;;;;;6304328;22;20066;-91
2021/12/18 10:46:39;;;;;;;31.80;17.33;;;7.40;99.90;;;;;;6302829;22;20007;-92
2021/12/18 10:49:17;;;;;;;28.35;17.30;;;7.40;99.90;;;;;;6304854;22;20026;-93
2021/12/18 10:51:48;;;;;;;;;;;7.50;99.90;;;;;;6313133;22;20351;-91
2021/12/18 10:54:32;;;;;;;27.25;16.52;;;7.60;99.90;;;;;;6318663;22;19910;-90
2021/12/18 10:57:25;;;;;;;28.13;16.67;;;7.60;99.90;;;;;;6321262;22;19983;-89
2021/12/18 11:00:41;;;;;;;;;;;;;;;;;;;;;
2021/12/18 11:03:46;;;;;;;25.20;15.77;;;7.80;99.90;;;;;;6312115;22;20060;-94
2021/12/18 11:06:39;;;;;;;;;;;;;;;;;;;;;
2021/12/18 11:09:27;;;;;;;;;;;;;;;;;;;;;
2021/12/18 11:15:02;;;;;;;;;;;;;;;;;;;;;
2021/12/18 11:17:40;;;;;;;;;;;;;;;;;;;;;
2021/12/18 11:20:15;;;;;;;;;;;8.00;99.90;;;;;;6315211;22;20026;-89
2021/12/18 11:22:52;;;;;;;23.80;14.15;;;8.00;99.90;;;;;;6311964;22;19902;-93
2021/12/18 11:26:01;;;;;;;;;;;;;;;;;;;;;
2021/12/18 11:28:30;;;;;;;22.63;14.32;;;8.00;99.90;;;;;;6251738;23;20047;-92
2021/12/18 11:31:19;;;;;;;25.65;15.45;;;8.10;99.90;;;;;;6247131;23;20011;-92
2021/12/18 11:33:50;;;;;;;29.92;15.02;;;8.00;99.90;;;;;;6243189;23;20055;-89
2021/12/18 11:36:47;;;;;;;;;;;;;;;;;;;;;
2021/12/18 11:39:36;;;;;;;25.85;15.57;;;8.10;99.90;;;;;;6249225;23;20035;-89
2021/12/18 11:42:03;;;;;;;;;;;8.00;99.90;;;;;;6247144;23;20004;-93
2021/12/18 11:44:53;;;;;;;29.08;15.88;;;8.00;99.90;;;;;;6230515;23;19941;-89
2021/12/18 11:47:40;;;;;;;24.63;15.88;;;8.00;99.90;;;;;;6225056;23;20019;-89
2021/12/18 11:50:23;;;;;;;26.90;15.97;;;8.20;99.90;;;;;;6260208;23;20046;-88
2021/12/18 11:53:11;;;;;;;25.13;14.80;;;8.30;99.90;;;;;;6244823;23;20008;-89
2021/12/18 11:55:48;;;;;;;22.37;13.77;;;8.40;99.30;;;;;;6241540;23;20004;-89
2021/12/18 11:58:20;;;;;;;23.45;14.52;;;8.50;99.60;;;;;;6224939;22;20712;-89
2021/12/18 12:00:52;;;;;;;21.77;13.32;;;8.50;99.30;;;;;;6300059;22;19999;-89
2021/12/18 12:03:38;;;;;;;20.17;13.00;;;8.50;96.30;;;;;;6306083;22;20006;-94
2021/12/18 12:06:30;;;;;;;22.70;13.77;;;8.50;99.30;;;;;;6304896;22;19999;-92
